createdAt,value
2022-12-09T00:00:11.991Z,93.74
2022-12-09T00:02:40.803Z,93.49
2022-12-09T00:05:10.298Z,94.21
2022-12-09T00:07:38.826Z,93.53
2022-12-09T00:10:09.173Z,94.10
2022-12-09T00:12:37.451Z,93.40
2022-12-09T00:15:08.860Z,93.21
2022-12-09T00:17:37.269Z,92.97
2022-12-09T00:20:07.712Z,92.66
2022-12-09T00:22:36.431Z,93.19
2022-12-09T00:25:04.896Z,92.86
2022-12-09T00:27:33.383Z,93.40
2022-12-09T00:30:01.622Z,92.68
2022-12-09T00:32:31.468Z,93.35
2022-12-09T00:34:59.793Z,93.43
2022-12-09T00:37:28.170Z,93.19
2022-12-09T00:39:56.409Z,93.78
2022-12-09T00:42:24.675Z,93.33
2022-12-09T00:44:52.886Z,93.96
2022-12-09T00:47:21.433Z,93.81
2022-12-09T00:49:51.274Z,93.26
2022-12-09T00:52:19.665Z,94.26
2022-12-09T00:54:48.195Z,93.53
2022-12-09T00:57:16.492Z,94.15
2022-12-09T00:59:45.043Z,94.41
2022-12-09T01:02:13.675Z,93.38
2022-12-09T01:04:42.008Z,94.06
2022-12-09T01:07:12.973Z,93.98
2022-12-09T01:09:41.278Z,93.58
2022-12-09T01:12:12.163Z,94.21
2022-12-09T01:14:40.784Z,94.29
2022-12-09T01:17:09.358Z,94.29
2022-12-09T01:19:37.814Z,93.33
2022-12-09T01:22:06.022Z,94.18
2022-12-09T01:24:35.642Z,94.41
2022-12-09T01:27:03.978Z,94.07
2022-12-09T01:29:32.257Z,94.55
2022-12-09T01:32:00.974Z,93.37
2022-12-09T01:34:29.477Z,93.81
2022-12-09T01:36:57.913Z,94.48
2022-12-09T01:39:26.303Z,94.11
2022-12-09T01:41:56.089Z,93.64
2022-12-09T01:44:27.289Z,93.35
2022-12-09T01:46:57.620Z,94.00
2022-12-09T01:49:30.338Z,93.47
2022-12-09T01:52:06.715Z,93.81
2022-12-09T01:54:35.394Z,93.67
2022-12-09T01:57:06.540Z,94.06
2022-12-09T01:59:35.916Z,92.96
2022-12-09T02:02:06.911Z,93.58
2022-12-09T02:04:41.302Z,93.09
2022-12-09T02:07:11.837Z,93.54
2022-12-09T02:09:40.998Z,93.73
2022-12-09T02:12:15.404Z,93.65
2022-12-09T02:14:51.133Z,92.88
2022-12-09T02:17:31.166Z,93.17
2022-12-09T02:20:10.545Z,93.87
2022-12-09T02:22:44.642Z,94.13
2022-12-09T02:25:25.319Z,94.11
2022-12-09T02:28:36.202Z,93.38
2022-12-09T02:31:21.517Z,93.45
2022-12-09T02:34:19.010Z,93.78
2022-12-09T02:37:00.421Z,93.50
2022-12-09T02:39:35.556Z,93.41
2022-12-09T02:42:06.116Z,93.95
2022-12-09T02:44:36.683Z,94.23
2022-12-09T02:47:07.995Z,93.74
2022-12-09T02:49:40.293Z,93.59
2022-12-09T02:52:09.749Z,94.16
2022-12-09T02:54:40.241Z,94.07
2022-12-09T02:57:24.651Z,93.85
2022-12-09T02:59:53.080Z,93.42
2022-12-09T03:02:28.432Z,93.18
2022-12-09T03:05:11.311Z,93.34
2022-12-09T03:07:46.282Z,93.54
2022-12-09T03:10:22.009Z,93.79
2022-12-09T03:12:56.441Z,93.40
2022-12-09T03:15:29.211Z,92.77
2022-12-09T03:17:59.896Z,93.10
2022-12-09T03:20:31.774Z,92.43
2022-12-09T03:23:03.531Z,92.43
2022-12-09T03:25:35.711Z,91.73
2022-12-09T03:28:07.443Z,91.63
2022-12-09T03:30:42.007Z,91.29
2022-12-09T03:33:11.500Z,91.78
2022-12-09T03:35:45.209Z,90.98
2022-12-09T03:38:18.809Z,91.13
2022-12-09T03:40:52.040Z,91.00
2022-12-09T03:43:25.504Z,91.00
2022-12-09T03:45:54.688Z,91.17
2022-12-09T03:48:25.105Z,90.92
2022-12-09T03:51:01.170Z,90.75
2022-12-09T03:53:37.922Z,90.77
2022-12-09T03:56:16.826Z,90.57
2022-12-09T03:58:49.167Z,90.72
2022-12-09T04:01:18.441Z,90.66
2022-12-09T04:03:50.825Z,90.54
2022-12-09T04:06:20.808Z,90.74
2022-12-09T04:08:50.172Z,90.56
2022-12-09T04:11:18.489Z,90.67
2022-12-09T04:13:46.870Z,90.39
2022-12-09T04:16:15.583Z,90.38
2022-12-09T04:18:44.247Z,90.50
2022-12-09T04:21:15.331Z,90.58
2022-12-09T04:23:45.107Z,90.20
2022-12-09T04:26:16.335Z,90.31
2022-12-09T04:28:45.181Z,90.26
2022-12-09T04:31:14.679Z,89.92
2022-12-09T04:33:44.061Z,90.24
2022-12-09T04:36:16.584Z,90.25
2022-12-09T04:38:47.148Z,90.21
2022-12-09T04:41:16.954Z,90.31
2022-12-09T04:43:45.685Z,90.30
2022-12-09T04:46:16.977Z,90.45
2022-12-09T04:48:46.501Z,90.48
2022-12-09T04:51:17.192Z,90.09
2022-12-09T04:53:47.098Z,90.53
2022-12-09T04:56:19.094Z,90.46
2022-12-09T04:58:48.585Z,90.49
2022-12-09T05:01:24.781Z,90.78
2022-12-09T05:03:56.992Z,90.41
2022-12-09T05:06:25.851Z,90.33
2022-12-09T05:08:56.535Z,90.02
2022-12-09T05:11:25.900Z,90.32
2022-12-09T05:13:55.329Z,90.15
2022-12-09T05:16:24.090Z,89.68
2022-12-09T05:18:53.269Z,89.68
2022-12-09T05:21:23.128Z,89.89
2022-12-09T05:23:52.275Z,90.11
2022-12-09T05:26:24.457Z,89.77
2022-12-09T05:28:54.882Z,89.30
2022-12-09T05:31:24.745Z,89.79
2022-12-09T05:33:54.131Z,89.34
2022-12-09T05:36:25.479Z,89.46
2022-12-09T05:38:54.681Z,89.45
2022-12-09T05:41:25.253Z,90.28
2022-12-09T05:43:54.689Z,90.06
2022-12-09T05:46:23.468Z,90.03
2022-12-09T05:48:52.461Z,90.46
2022-12-09T05:51:25.441Z,90.41
2022-12-09T05:53:55.747Z,90.55
2022-12-09T05:56:26.703Z,90.63
2022-12-09T05:58:56.519Z,90.17
2022-12-09T06:01:26.544Z,89.98
2022-12-09T06:03:56.724Z,90.32
2022-12-09T06:06:28.051Z,89.97
2022-12-09T06:08:58.773Z,89.89
2022-12-09T06:11:29.335Z,89.96
2022-12-09T06:13:58.474Z,89.84
2022-12-09T06:16:27.329Z,90.28
2022-12-09T06:18:56.244Z,90.76
2022-12-09T06:21:25.555Z,90.50
2022-12-09T06:23:54.911Z,90.71
2022-12-09T06:26:26.412Z,90.14
2022-12-09T06:28:57.590Z,90.31
2022-12-09T06:31:26.898Z,90.29
2022-12-09T06:33:57.990Z,90.11
2022-12-09T06:36:31.406Z,90.13
2022-12-09T06:39:09.545Z,90.75
2022-12-09T06:41:40.786Z,90.49
2022-12-09T06:44:14.306Z,89.99
2022-12-09T06:46:45.662Z,90.37
2022-12-09T06:49:14.409Z,90.39
2022-12-09T06:51:42.826Z,90.81
2022-12-09T06:54:11.169Z,90.67
2022-12-09T06:56:39.739Z,90.87
2022-12-09T06:59:11.323Z,90.31
2022-12-09T07:01:40.911Z,90.67
2022-12-09T07:04:09.436Z,90.73
2022-12-09T07:06:40.247Z,90.45
2022-12-09T07:09:11.425Z,90.18
2022-12-09T07:11:40.534Z,91.07
2022-12-09T07:14:11.636Z,90.69
2022-12-09T07:16:40.750Z,91.33
2022-12-09T07:19:09.734Z,90.85
2022-12-09T07:21:38.363Z,90.55
2022-12-09T07:24:07.718Z,90.88
2022-12-09T07:26:37.079Z,90.81
2022-12-09T07:29:06.625Z,90.21
2022-12-09T07:31:37.498Z,90.41
2022-12-09T07:34:06.833Z,90.87
2022-12-09T07:36:38.058Z,91.00
2022-12-09T07:39:09.617Z,90.75
2022-12-09T07:41:38.124Z,91.34
2022-12-09T07:44:06.857Z,90.89
2022-12-09T07:46:36.647Z,90.65
2022-12-09T07:49:07.305Z,90.93
2022-12-09T07:51:36.304Z,91.09
2022-12-09T07:54:05.466Z,91.06
2022-12-09T07:56:34.383Z,90.95
2022-12-09T07:59:02.804Z,91.10
2022-12-09T08:01:31.721Z,91.40
2022-12-09T08:04:02.523Z,91.56
2022-12-09T08:06:32.213Z,91.33
2022-12-09T08:09:02.049Z,91.07
2022-12-09T08:11:33.152Z,91.19
2022-12-09T08:14:11.064Z,91.00
2022-12-09T08:16:41.867Z,91.39
2022-12-09T08:19:13.307Z,91.75
2022-12-09T08:21:42.425Z,91.90
2022-12-09T08:24:13.775Z,91.81
2022-12-09T08:26:43.293Z,92.36
2022-12-09T08:29:14.372Z,91.92
2022-12-09T08:31:47.295Z,92.17
2022-12-09T08:34:23.149Z,92.43
2022-12-09T08:36:52.954Z,92.28
2022-12-09T08:39:24.049Z,91.92
2022-12-09T08:41:52.398Z,92.27
2022-12-09T08:44:22.835Z,92.29
2022-12-09T08:46:52.989Z,92.27
2022-12-09T08:49:25.148Z,92.48
2022-12-09T08:51:54.741Z,92.52
2022-12-09T08:54:24.015Z,92.95
2022-12-09T08:56:56.254Z,92.91
2022-12-09T08:59:25.413Z,92.89
2022-12-09T09:01:54.510Z,93.04
2022-12-09T09:04:24.580Z,93.09
2022-12-09T09:06:54.181Z,92.82
2022-12-09T09:09:23.786Z,93.06
2022-12-09T09:11:52.761Z,93.13
2022-12-09T09:14:21.088Z,93.41
2022-12-09T09:16:49.994Z,93.35
2022-12-09T09:19:22.601Z,93.33
2022-12-09T09:21:53.264Z,93.72
2022-12-09T09:24:25.159Z,94.01
2022-12-09T09:26:54.779Z,94.16
2022-12-09T09:29:24.972Z,94.62
2022-12-09T09:31:55.230Z,94.29
2022-12-09T09:34:26.147Z,94.55
2022-12-09T09:36:56.870Z,94.33
2022-12-09T09:39:25.904Z,94.33
2022-12-09T09:41:57.400Z,94.85
2022-12-09T09:44:32.601Z,94.98
2022-12-09T09:47:05.424Z,95.14
2022-12-09T09:49:37.712Z,94.46
2022-12-09T09:52:12.702Z,95.30
2022-12-09T09:54:41.644Z,95.52
2022-12-09T09:57:17.276Z,95.46
2022-12-09T10:00:08.451Z,95.68
2022-12-09T10:03:01.129Z,95.68
2022-12-09T10:05:34.224Z,95.37
2022-12-09T10:08:28.021Z,94.86
2022-12-09T10:11:09.230Z,94.73
2022-12-09T10:13:49.444Z,94.94
2022-12-09T10:16:23.138Z,95.16
2022-12-09T10:19:08.188Z,94.34
2022-12-09T10:21:43.415Z,94.90
2022-12-09T10:24:25.037Z,94.77
2022-12-09T10:27:03.635Z,95.66
2022-12-09T10:29:56.769Z,94.66
2022-12-09T10:32:29.056Z,95.05
2022-12-09T10:34:59.273Z,94.89
2022-12-09T10:37:33.029Z,95.45
2022-12-09T10:40:22.125Z,95.53
2022-12-09T10:43:11.728Z,95.64
2022-12-09T10:48:39.737Z,95.13
2022-12-09T10:51:14.125Z,95.68
2022-12-09T10:53:48.725Z,95.81
2022-12-09T10:56:26.701Z,95.32
2022-12-09T10:59:11.961Z,95.50
2022-12-09T11:01:52.209Z,95.36
2022-12-09T11:04:26.343Z,95.39
2022-12-09T11:07:00.223Z,95.06
2022-12-09T11:09:32.259Z,95.17
2022-12-09T11:12:05.724Z,95.18
2022-12-09T11:14:38.257Z,95.90
2022-12-09T11:17:17.052Z,95.21
2022-12-09T11:19:51.332Z,95.16
2022-12-09T11:22:39.142Z,96.00
2022-12-09T11:25:23.801Z,96.08
2022-12-09T11:27:57.764Z,95.32
2022-12-09T11:30:29.288Z,95.76
2022-12-09T11:33:09.925Z,95.45
2022-12-09T11:35:53.653Z,95.40
2022-12-09T11:38:40.237Z,95.84
2022-12-09T11:41:41.539Z,95.88
2022-12-09T11:44:26.763Z,96.05
2022-12-09T11:47:02.450Z,95.70
2022-12-09T11:49:33.998Z,96.04
2022-12-09T11:52:24.475Z,96.31
2022-12-09T11:55:10.679Z,95.15
2022-12-09T11:57:47.945Z,96.58
2022-12-09T12:00:23.700Z,96.04
2022-12-09T12:03:04.019Z,96.23
2022-12-09T12:05:38.303Z,95.75
2022-12-09T12:08:17.745Z,95.84
2022-12-09T12:10:51.244Z,95.60
2022-12-09T12:13:24.699Z,96.76
2022-12-09T12:16:07.025Z,95.89
2022-12-09T12:18:42.815Z,95.67
2022-12-09T12:21:51.042Z,96.26
2022-12-09T12:24:42.262Z,95.73
2022-12-09T12:27:29.524Z,96.16
2022-12-09T12:30:04.999Z,96.09
2022-12-09T12:33:11.736Z,95.88
2022-12-09T12:35:56.136Z,96.61
2022-12-09T12:38:51.548Z,96.70
2022-12-09T12:41:37.585Z,96.62
2022-12-09T12:44:41.757Z,96.67
2022-12-09T12:47:25.960Z,95.50
2022-12-09T12:50:23.704Z,96.34
2022-12-09T12:53:03.397Z,96.09
2022-12-09T12:56:01.034Z,96.40
2022-12-09T12:58:47.571Z,96.21
2022-12-09T13:01:32.129Z,96.74
2022-12-09T13:04:14.143Z,95.80
2022-12-09T13:06:52.163Z,95.01
2022-12-09T13:09:26.986Z,95.40
2022-12-09T13:12:08.514Z,95.17
2022-12-09T13:14:52.837Z,95.90
2022-12-09T13:17:26.499Z,94.96
2022-12-09T13:20:00.036Z,94.79
2022-12-09T13:22:41.290Z,95.61
2022-12-09T13:25:25.568Z,95.35
2022-12-09T13:28:00.744Z,94.82
2022-12-09T13:30:39.001Z,95.55
2022-12-09T13:33:32.030Z,94.60
2022-12-09T13:36:06.794Z,95.09
2022-12-09T13:38:40.720Z,94.92
2022-12-09T13:42:05.186Z,94.46
2022-12-09T13:44:37.713Z,95.13
2022-12-09T13:47:27.836Z,94.61
2022-12-09T13:50:02.452Z,94.62
2022-12-09T13:52:56.611Z,95.47
2022-12-09T13:55:41.165Z,95.57
2022-12-09T13:59:01.885Z,94.62
2022-12-09T14:01:37.386Z,95.08
2022-12-09T14:04:14.441Z,94.70
2022-12-09T14:07:10.364Z,94.46
2022-12-09T14:09:49.082Z,94.27
2022-12-09T14:13:03.532Z,94.54
2022-12-09T14:15:39.986Z,94.43
2022-12-09T14:18:32.997Z,95.43
2022-12-09T14:21:30.605Z,94.21
2022-12-09T14:24:36.697Z,94.58
2022-12-09T14:27:19.658Z,94.91
2022-12-09T14:29:53.558Z,94.62
2022-12-09T14:32:27.677Z,94.52
2022-12-09T14:35:23.495Z,94.64
2022-12-09T14:38:16.863Z,94.60
2022-12-09T14:40:58.120Z,94.46
2022-12-09T14:43:57.593Z,94.06
2022-12-09T14:46:30.142Z,94.63
2022-12-09T14:49:03.497Z,94.28
2022-12-09T14:51:36.675Z,94.99
2022-12-09T14:54:09.426Z,94.70
2022-12-09T14:56:37.846Z,94.42
2022-12-09T14:59:19.329Z,94.67
2022-12-09T15:01:54.438Z,94.71
2022-12-09T15:04:31.851Z,94.25
2022-12-09T15:07:16.317Z,93.18
2022-12-09T15:09:57.077Z,93.14
2022-12-09T15:12:31.215Z,93.72
2022-12-09T15:15:07.171Z,93.40
2022-12-09T15:17:43.497Z,92.43
2022-12-09T15:20:28.997Z,92.54
2022-12-09T15:23:00.677Z,91.88
2022-12-09T15:25:29.678Z,91.66
2022-12-09T15:28:00.499Z,91.63
2022-12-09T15:30:35.186Z,91.73
2022-12-09T15:33:04.790Z,92.02
2022-12-09T15:35:34.562Z,91.54
2022-12-09T15:38:07.499Z,91.08
2022-12-09T15:40:38.158Z,91.28
2022-12-09T15:43:12.651Z,90.86
2022-12-09T15:45:45.322Z,91.23
2022-12-09T15:48:18.043Z,91.07
2022-12-09T15:50:51.470Z,90.95
2022-12-09T15:53:25.298Z,91.59
2022-12-09T15:55:57.885Z,90.50
2022-12-09T15:58:30.543Z,91.06
2022-12-09T16:01:00.374Z,90.88
2022-12-09T16:03:32.724Z,90.94
2022-12-09T16:06:05.256Z,90.61
2022-12-09T16:08:36.349Z,90.54
2022-12-09T16:11:05.637Z,90.59
2022-12-09T16:13:34.186Z,90.73
2022-12-09T16:16:28.284Z,90.25
2022-12-09T16:18:56.933Z,90.66
2022-12-09T16:21:29.281Z,90.52
2022-12-09T16:24:07.160Z,90.90
2022-12-09T16:26:38.756Z,90.75
2022-12-09T16:29:16.511Z,90.32
2022-12-09T16:31:46.166Z,90.53
2022-12-09T16:34:21.986Z,90.76
2022-12-09T16:36:55.919Z,90.40
2022-12-09T16:39:35.558Z,90.33
2022-12-09T16:42:04.221Z,90.23
2022-12-09T16:44:36.905Z,90.63
2022-12-09T16:47:13.796Z,90.58
2022-12-09T16:49:44.274Z,90.58
2022-12-09T16:52:15.369Z,90.46
2022-12-09T16:54:45.688Z,90.41
2022-12-09T16:57:15.694Z,90.05
2022-12-09T16:59:45.207Z,90.24
2022-12-09T17:02:26.399Z,90.31
2022-12-09T17:04:54.870Z,90.21
2022-12-09T17:07:23.093Z,90.44
2022-12-09T17:09:51.293Z,90.52
2022-12-09T17:12:19.569Z,90.54
2022-12-09T17:14:47.883Z,90.34
2022-12-09T17:17:16.156Z,90.57
2022-12-09T17:19:46.679Z,90.99
2022-12-09T17:22:14.907Z,90.49
2022-12-09T17:24:43.363Z,91.00
2022-12-09T17:27:11.588Z,90.82
2022-12-09T17:29:39.924Z,90.49
2022-12-09T17:32:08.499Z,90.52
2022-12-09T17:34:36.766Z,90.73
2022-12-09T17:37:06.934Z,90.79
2022-12-09T17:39:35.690Z,91.19
2022-12-09T17:42:03.999Z,91.45
2022-12-09T17:44:32.273Z,91.10
2022-12-09T17:47:00.604Z,91.50
2022-12-09T17:49:28.874Z,91.67
2022-12-09T17:51:57.193Z,91.60
2022-12-09T17:54:26.815Z,91.57
2022-12-09T17:56:55.043Z,91.53
2022-12-09T17:59:23.240Z,91.40
2022-12-09T18:01:51.440Z,91.49
2022-12-09T18:04:19.712Z,91.32
2022-12-09T18:06:48.220Z,91.26
2022-12-09T18:09:19.834Z,91.28
2022-12-09T18:11:51.703Z,90.95
2022-12-09T18:14:20.537Z,90.65
2022-12-09T18:16:50.117Z,90.79
2022-12-09T18:19:20.761Z,90.62
2022-12-09T18:21:50.219Z,90.97
2022-12-09T18:24:18.749Z,90.88
2022-12-09T18:26:49.694Z,90.64
2022-12-09T18:29:18.050Z,91.05
2022-12-09T18:31:50.449Z,91.35
2022-12-09T18:34:21.185Z,90.78
2022-12-09T18:36:49.461Z,90.98
2022-12-09T18:39:18.127Z,91.03
2022-12-09T18:41:47.989Z,90.86
2022-12-09T18:44:17.577Z,90.54
2022-12-09T18:46:49.217Z,90.72
2022-12-09T18:49:23.572Z,90.70
2022-12-09T18:51:53.391Z,90.67
2022-12-09T18:54:24.710Z,90.87
2022-12-09T18:56:54.923Z,90.63
2022-12-09T18:59:25.462Z,90.45
2022-12-09T19:01:54.074Z,90.89
2022-12-09T19:04:25.660Z,90.54
2022-12-09T19:06:57.299Z,90.97
2022-12-09T19:09:28.545Z,91.21
2022-12-09T19:12:11.285Z,90.56
2022-12-09T19:14:47.556Z,91.22
2022-12-09T19:17:15.812Z,90.93
2022-12-09T19:19:45.328Z,91.24
2022-12-09T19:22:13.562Z,90.90
2022-12-09T19:24:43.421Z,91.17
2022-12-09T19:27:13.946Z,91.28
2022-12-09T19:29:42.376Z,91.07
2022-12-09T19:32:36.450Z,91.15
2022-12-09T19:34:58.975Z,91.64
2022-12-09T19:37:27.272Z,91.32
2022-12-09T19:39:55.609Z,91.29
2022-12-09T19:42:25.238Z,91.58
2022-12-09T19:45:01.280Z,91.39
2022-12-09T19:47:29.964Z,91.46
2022-12-09T19:49:58.231Z,91.44
2022-12-09T19:52:27.975Z,91.11
2022-12-09T19:54:57.852Z,91.74
2022-12-09T19:57:27.524Z,90.89
2022-12-09T19:59:55.824Z,91.00
2022-12-09T20:02:24.056Z,90.96
2022-12-09T20:04:52.555Z,91.24
2022-12-09T20:07:21.533Z,90.93
2022-12-09T20:09:50.158Z,91.16
2022-12-09T20:12:18.446Z,90.91
2022-12-09T20:14:48.078Z,91.22
2022-12-09T20:17:17.385Z,91.21
2022-12-09T20:19:45.636Z,91.17
2022-12-09T20:22:13.872Z,91.02
2022-12-09T20:24:43.214Z,91.41
2022-12-09T20:27:11.529Z,90.45
2022-12-09T20:29:41.159Z,90.55
2022-12-09T20:32:11.005Z,91.25
2022-12-09T20:34:39.613Z,91.50
2022-12-09T20:37:08.028Z,91.54
2022-12-09T20:39:36.335Z,90.88
2022-12-09T20:42:04.792Z,91.73
2022-12-09T20:44:33.393Z,91.15
2022-12-09T20:47:01.666Z,91.64
2022-12-09T20:49:31.415Z,91.23
2022-12-09T20:52:05.780Z,91.25
2022-12-09T20:54:34.055Z,91.35
2022-12-09T20:57:02.306Z,91.67
2022-12-09T20:59:30.579Z,91.19
2022-12-09T21:01:58.855Z,91.65
2022-12-09T21:04:27.140Z,91.65
2022-12-09T21:06:57.364Z,91.41
2022-12-09T21:09:27.232Z,91.19
2022-12-09T21:11:55.524Z,91.09
2022-12-09T21:14:29.416Z,91.38
2022-12-09T21:17:00.818Z,91.55
2022-12-09T21:19:30.413Z,91.70
2022-12-09T21:22:00.127Z,91.47
2022-12-09T21:24:28.681Z,91.84
2022-12-09T21:26:57.288Z,91.53
2022-12-09T21:29:31.731Z,92.10
2022-12-09T21:32:01.706Z,91.52
2022-12-09T21:34:30.142Z,91.42
2022-12-09T21:36:59.789Z,91.19
2022-12-09T21:39:29.122Z,90.57
2022-12-09T21:41:57.501Z,91.07
2022-12-09T21:44:27.261Z,91.23
2022-12-09T21:46:55.634Z,91.50
2022-12-09T21:49:24.059Z,91.25
2022-12-09T21:51:52.384Z,91.45
2022-12-09T21:54:22.017Z,91.34
2022-12-09T21:56:50.494Z,90.71
2022-12-09T21:59:19.081Z,91.07
2022-12-09T22:01:47.519Z,91.23
2022-12-09T22:04:17.376Z,90.91
2022-12-09T22:06:49.559Z,91.39
2022-12-09T22:09:21.652Z,91.48
2022-12-09T22:11:50.143Z,91.47
2022-12-09T22:14:18.684Z,91.45
2022-12-09T22:16:47.466Z,91.86
2022-12-09T22:19:21.037Z,91.30
2022-12-09T22:21:51.109Z,91.76
2022-12-09T22:24:21.386Z,91.84
2022-12-09T22:26:49.710Z,91.93
2022-12-09T22:29:19.874Z,91.91
2022-12-09T22:31:48.643Z,92.31
2022-12-09T22:34:19.910Z,91.66
2022-12-09T22:36:49.401Z,91.96
2022-12-09T22:39:22.111Z,91.63
2022-12-09T22:41:50.934Z,92.00
2022-12-09T22:44:21.008Z,91.71
2022-12-09T22:46:49.990Z,91.54
2022-12-09T22:49:18.699Z,91.68
2022-12-09T22:51:47.836Z,91.61
2022-12-09T22:54:16.592Z,91.49
2022-12-09T22:56:46.364Z,91.90
2022-12-09T22:59:16.054Z,91.57
2022-12-09T23:01:48.499Z,91.32
2022-12-09T23:04:21.657Z,91.42
2022-12-09T23:06:51.136Z,91.42
2022-12-09T23:09:22.435Z,90.96
2022-12-09T23:11:53.386Z,91.12
2022-12-09T23:14:21.862Z,90.97
2022-12-09T23:16:50.352Z,91.37
2022-12-09T23:19:18.586Z,90.83
2022-12-09T23:21:47.119Z,91.17
2022-12-09T23:24:24.704Z,90.90
2022-12-09T23:26:56.742Z,91.17
2022-12-09T23:29:25.086Z,90.97
2022-12-09T23:31:53.574Z,91.30
2022-12-09T23:34:21.811Z,91.27
2022-12-09T23:36:50.089Z,91.53
2022-12-09T23:39:20.147Z,91.54
2022-12-09T23:41:49.389Z,91.55
2022-12-09T23:44:20.120Z,91.59
2022-12-09T23:46:48.558Z,91.49
2022-12-09T23:49:17.707Z,91.51
2022-12-09T23:51:46.248Z,92.24
2022-12-09T23:54:16.762Z,91.36
2022-12-09T23:56:50.267Z,91.47
2022-12-09T23:59:22.703Z,91.88
